Friday, July 25, 2014
10:34 UTC
  |  Log In   |  Register Free
Airport Search:

Owatonna Degner Regional Airport
(KOWA)

Owatonna Degner Regional Airport Diagram
No Airport Diagram Available

FAA data valid effective July 24, 2014 until September 18, 2014 (unless otherwise noted).

 
 
 
 
 
 
 
 
 
 
 
 
 
 

Current Aviation Weather for Owatonna Degner Regional Airport (KOWA)

The most recent METAR observation for KOWA was updated at: 0935 UTC
METAR Summary (Translated METAR)
KOWA
250935Z AUTO 16012G20KT 10SM CLR 19/14 A2988 RMK AO2 LTG DSNT SW THRU N
KFBL
(12.5 nm NW from KOWA)
250934Z AUTO 16008KT 10SM BKN033 21/13 A2989 RMK AO2 LTG DSNT ALQDS
TAF
No TAF information found within 50 nm of KOWA
  Airport Weather Conditions for KOWA

 Current Weather at OWA
66° F
Thunderstorm in Vicinity
South winds at 11.5 mph
OWA NOAA Radar

Pressure: 29.89 in
Humidity: 78%
Wind: from the South at 11.5 gusting to 20.7 MPH (10 gusting to 18 KT)
Dew Point: 59.0°F
Visibility: 10.00 mi


Airport Weather Forecast for KOWA

Translated METAR and TAF for KOWA
Translated METAR for KOWA (1028 UTC 25 July 2014)
found at http://aviationweather.gov/adds/metars/
 
METAR text: KOWA 251015Z AUTO 16007KT 7SM VCTSRA SCT014 BKN050 OVC070 18/16 A2992 RMK AO2 P0006 LTG DSNT ALQDS
Conditions at: KOWA (OWATONNA , MN, US) observed 1015 UTC 25 July 2014
Temperature: 18.0°C (64°F)
Dewpoint: 16.0°C (61°F) [RH = 88%]
Pressure (altimeter): 29.92 inches Hg (1013.3 mb)
Winds: from the SSE (160 degrees) at 8 MPH (7 knots; 3.6 m/s)
Visibility: 7 miles (11 km)
Ceiling: 5000 feet AGL
Clouds: scattered clouds at 1400 feet AGL
broken clouds at 5000 feet AGL
overcast cloud deck at 7000 feet AGL
Weather: VCTSRA  ( could not decipher "VCTSRA")
Translated TAF for KOWA

There is no translated TAF available for this airport

Find All Airport Services Find A Hotel Find A Rental Car Find A Golf Course Find A Restaurant $100 Hamburger



FBO's on the Field
FBO Company Facility Photos Services Transportation Aviation Fuel Prices: Prices include tax
Catering Weather Repair Courtesy Rental Type 100LL JetA JetA+ MOGAS 8087
 
Owatonna Degner Regional Airport

This FBO has not yet been rated
FS:Avfuel
Last Updated: Jul-09
Login to update fuel prices
SS:
Contact Owatonna Degner Regional AirportMore FBO Information
 
Add another FBO Facility Photos Catering Weather Repair Courtesy Rental Type 100LL JetA JetA+ MOGAS 8087
Services Transportation Aviation Fuel Prices: Prices include tax


GlobalAir.com Airport Resource Center model-print
model-print
model-print
model-print